sensor_id;sensor_type;location;lat;lon;timestamp;P1;durP1;ratioP1;P2;durP2;ratioP2
74626;SDS011;63132;52.268;5.192;2023-04-03T14:18:34;2.03;;;0.70;;
74626;SDS011;63132;52.268;5.192;2023-04-03T14:21:02;2.92;;;0.85;;
74626;SDS011;63132;52.268;5.192;2023-04-03T14:23:27;3.13;;;0.80;;
74626;SDS011;63132;52.268;5.192;2023-04-03T14:25:53;3.30;;;1.27;;
74626;SDS011;63132;52.268;5.192;2023-04-03T14:28:20;3.97;;;1.33;;
74626;SDS011;63132;52.268;5.192;2023-04-03T14:30:48;3.65;;;1.10;;
74626;SDS011;63132;52.268;5.192;2023-04-03T14:33:18;6.55;;;1.10;;
74626;SDS011;63132;52.268;5.192;2023-04-03T14:35:46;3.45;;;0.93;;
74626;SDS011;63132;52.268;5.192;2023-04-03T14:38:45;4.95;;;1.30;;
74626;SDS011;63132;52.268;5.192;2023-04-03T14:41:04;3.85;;;1.20;;
74626;SDS011;63132;52.268;5.192;2023-04-03T14:43:29;3.28;;;1.20;;
74626;SDS011;63132;52.268;5.192;2023-04-03T14:45:55;3.67;;;0.60;;
74626;SDS011;63132;52.268;5.192;2023-04-03T14:48:22;5.72;;;1.00;;
74626;SDS011;63132;52.268;5.192;2023-04-03T14:50:51;6.32;;;1.45;;
74626;SDS011;63132;52.268;5.192;2023-04-03T14:53:17;1.83;;;0.80;;
74626;SDS011;63132;52.268;5.192;2023-04-03T14:55:47;4.05;;;1.00;;
74626;SDS011;63132;52.268;5.192;2023-04-03T14:58:15;4.68;;;1.30;;
74626;SDS011;63132;52.268;5.192;2023-04-03T15:00:42;2.90;;;1.30;;
74626;SDS011;63132;52.268;5.192;2023-04-03T15:05:45;3.72;;;1.00;;
74626;SDS011;63132;52.268;5.192;2023-04-03T15:08:17;1.00;;;0.50;;
74626;SDS011;63132;52.268;5.192;2023-04-03T15:10:50;4.07;;;0.85;;
74626;SDS011;63132;52.268;5.192;2023-04-03T15:13:18;3.40;;;1.38;;
74626;SDS011;63132;52.268;5.192;2023-04-03T15:15:44;5.88;;;0.90;;
74626;SDS011;63132;52.268;5.192;2023-04-03T15:18:23;5.30;;;1.90;;
74626;SDS011;63132;52.268;5.192;2023-04-03T15:20:53;5.65;;;1.13;;
74626;SDS011;63132;52.268;5.192;2023-04-03T15:23:20;2.85;;;1.00;;
74626;SDS011;63132;52.268;5.192;2023-04-03T15:25:51;4.20;;;1.02;;
74626;SDS011;63132;52.268;5.192;2023-04-03T15:28:28;2.30;;;1.67;;
74626;SDS011;63132;52.268;5.192;2023-04-03T15:30:54;5.28;;;0.95;;
74626;SDS011;63132;52.268;5.192;2023-04-03T15:33:19;4.18;;;1.20;;
74626;SDS011;63132;52.268;5.192;2023-04-03T15:35:45;3.40;;;0.80;;
74626;SDS011;63132;52.268;5.192;2023-04-03T15:38:10;3.80;;;1.30;;
74626;SDS011;63132;52.268;5.192;2023-04-03T15:40:36;2.60;;;1.08;;
74626;SDS011;63132;52.268;5.192;2023-04-03T15:43:02;2.58;;;0.73;;
74626;SDS011;63132;52.268;5.192;2023-04-03T15:45:28;4.13;;;1.08;;
74626;SDS011;63132;52.268;5.192;2023-04-03T15:47:55;2.83;;;0.93;;
74626;SDS011;63132;52.268;5.192;2023-04-03T15:50:21;4.82;;;1.50;;
74626;SDS011;63132;52.268;5.192;2023-04-03T15:52:48;3.03;;;1.17;;
74626;SDS011;63132;52.268;5.192;2023-04-03T15:55:19;3.58;;;1.30;;
74626;SDS011;63132;52.268;5.192;2023-04-03T15:57:47;4.57;;;1.25;;
74626;SDS011;63132;52.268;5.192;2023-04-03T16:00:13;5.38;;;2.15;;
74626;SDS011;63132;52.268;5.192;2023-04-03T16:02:40;2.60;;;1.10;;
74626;SDS011;63132;52.268;5.192;2023-04-03T16:05:06;4.50;;;1.30;;
74626;SDS011;63132;52.268;5.192;2023-04-03T16:07:32;4.97;;;1.30;;
74626;SDS011;63132;52.268;5.192;2023-04-03T16:09:57;2.72;;;1.20;;
74626;SDS011;63132;52.268;5.192;2023-04-03T16:12:23;5.32;;;1.38;;
74626;SDS011;63132;52.268;5.192;2023-04-03T16:14:48;5.57;;;1.30;;
74626;SDS011;63132;52.268;5.192;2023-04-03T16:17:13;4.47;;;1.10;;
74626;SDS011;63132;52.268;5.192;2023-04-03T16:19:39;6.65;;;1.35;;
74626;SDS011;63132;52.268;5.192;2023-04-03T16:22:04;4.45;;;2.15;;
74626;SDS011;63132;52.268;5.192;2023-04-03T16:24:30;3.33;;;1.10;;
74626;SDS011;63132;52.268;5.192;2023-04-03T16:26:57;3.90;;;1.50;;
74626;SDS011;63132;52.268;5.192;2023-04-03T16:29:23;3.30;;;1.20;;
74626;SDS011;63132;52.268;5.192;2023-04-03T16:31:48;5.07;;;1.38;;
74626;SDS011;63132;52.268;5.192;2023-04-03T16:34:13;4.65;;;1.27;;
74626;SDS011;63132;52.268;5.192;2023-04-03T16:36:39;3.35;;;1.25;;
74626;SDS011;63132;52.268;5.192;2023-04-03T16:39:05;3.78;;;1.98;;
74626;SDS011;63132;52.268;5.192;2023-04-03T16:41:30;8.88;;;2.47;;
74626;SDS011;63132;52.268;5.192;2023-04-03T16:43:55;4.75;;;1.60;;
74626;SDS011;63132;52.268;5.192;2023-04-03T16:46:21;2.33;;;1.10;;
74626;SDS011;63132;52.268;5.192;2023-04-03T16:51:12;4.53;;;1.20;;
74626;SDS011;63132;52.268;5.192;2023-04-03T16:53:38;10.05;;;1.88;;
74626;SDS011;63132;52.268;5.192;2023-04-03T16:58:29;3.97;;;1.40;;
74626;SDS011;63132;52.268;5.192;2023-04-03T17:03:20;4.30;;;1.35;;
74626;SDS011;63132;52.268;5.192;2023-04-03T17:08:12;5.65;;;1.75;;
74626;SDS011;63132;52.268;5.192;2023-04-03T17:10:38;4.00;;;1.30;;
74626;SDS011;63132;52.268;5.192;2023-04-03T17:13:04;3.65;;;1.77;;
74626;SDS011;63132;52.268;5.192;2023-04-03T17:15:29;4.97;;;1.38;;
74626;SDS011;63132;52.268;5.192;2023-04-03T17:20:20;4.07;;;1.50;;
74626;SDS011;63132;52.268;5.192;2023-04-03T17:22:46;4.75;;;1.75;;
74626;SDS011;63132;52.268;5.192;2023-04-03T17:25:11;4.78;;;1.30;;
74626;SDS011;63132;52.268;5.192;2023-04-03T17:27:38;5.38;;;2.03;;
74626;SDS011;63132;52.268;5.192;2023-04-03T17:30:04;7.65;;;1.58;;
74626;SDS011;63132;52.268;5.192;2023-04-03T17:32:30;5.25;;;2.25;;
74626;SDS011;63132;52.268;5.192;2023-04-03T17:34:55;4.93;;;1.50;;
74626;SDS011;63132;52.268;5.192;2023-04-03T17:37:20;4.43;;;1.17;;
74626;SDS011;63132;52.268;5.192;2023-04-03T17:39:46;3.13;;;1.20;;
74626;SDS011;63132;52.268;5.192;2023-04-03T17:42:11;4.00;;;1.63;;
74626;SDS011;63132;52.268;5.192;2023-04-03T17:44:37;3.47;;;1.50;;
74626;SDS011;63132;52.268;5.192;2023-04-03T17:47:02;4.30;;;1.10;;
74626;SDS011;63132;52.268;5.192;2023-04-03T17:49:28;4.82;;;1.40;;
74626;SDS011;63132;52.268;5.192;2023-04-03T17:51:53;5.22;;;1.52;;
74626;SDS011;63132;52.268;5.192;2023-04-03T17:54:19;3.20;;;1.20;;
74626;SDS011;63132;52.268;5.192;2023-04-03T17:56:44;3.22;;;1.48;;
74626;SDS011;63132;52.268;5.192;2023-04-03T17:59:12;5.57;;;1.20;;
74626;SDS011;63132;52.268;5.192;2023-04-03T18:01:38;2.63;;;1.27;;
74626;SDS011;63132;52.268;5.192;2023-04-03T18:04:04;4.63;;;1.23;;
74626;SDS011;63132;52.268;5.192;2023-04-03T18:06:46;3.83;;;1.45;;
74626;SDS011;63132;52.268;5.192;2023-04-03T18:09:14;4.03;;;1.27;;
74626;SDS011;63132;52.268;5.192;2023-04-03T18:11:42;3.95;;;1.10;;
74626;SDS011;63132;52.268;5.192;2023-04-03T18:14:09;4.93;;;1.25;;
74626;SDS011;63132;52.268;5.192;2023-04-03T18:16:35;3.38;;;1.25;;
74626;SDS011;63132;52.268;5.192;2023-04-03T18:19:00;2.53;;;1.20;;
74626;SDS011;63132;52.268;5.192;2023-04-03T18:21:25;5.87;;;1.83;;
74626;SDS011;63132;52.268;5.192;2023-04-03T18:23:52;2.38;;;1.30;;
74626;SDS011;63132;52.268;5.192;2023-04-03T18:26:19;4.20;;;1.60;;
74626;SDS011;63132;52.268;5.192;2023-04-03T18:28:49;7.72;;;2.90;;
74626;SDS011;63132;52.268;5.192;2023-04-03T18:31:21;8.38;;;1.63;;
74626;SDS011;63132;52.268;5.192;2023-04-03T18:33:49;5.47;;;1.50;;
74626;SDS011;63132;52.268;5.192;2023-04-03T18:36:17;5.28;;;1.80;;
74626;SDS011;63132;52.268;5.192;2023-04-03T18:38:43;5.63;;;1.50;;
74626;SDS011;63132;52.268;5.192;2023-04-03T18:41:08;5.30;;;1.90;;
74626;SDS011;63132;52.268;5.192;2023-04-03T18:43:34;4.63;;;1.40;;
74626;SDS011;63132;52.268;5.192;2023-04-03T18:45:59;5.05;;;1.58;;
74626;SDS011;63132;52.268;5.192;2023-04-03T18:48:25;6.68;;;1.60;;
74626;SDS011;63132;52.268;5.192;2023-04-03T18:50:51;3.67;;;1.27;;
74626;SDS011;63132;52.268;5.192;2023-04-03T18:53:16;4.72;;;1.33;;
74626;SDS011;63132;52.268;5.192;2023-04-03T18:55:42;4.55;;;1.65;;
74626;SDS011;63132;52.268;5.192;2023-04-03T18:58:07;4.63;;;1.50;;
74626;SDS011;63132;52.268;5.192;2023-04-03T19:00:33;3.27;;;1.40;;
74626;SDS011;63132;52.268;5.192;2023-04-03T19:02:58;4.75;;;1.30;;
74626;SDS011;63132;52.268;5.192;2023-04-03T19:05:24;5.60;;;2.00;;
74626;SDS011;63132;52.268;5.192;2023-04-03T19:07:51;4.75;;;1.40;;
74626;SDS011;63132;52.268;5.192;2023-04-03T19:10:18;4.18;;;1.67;;
74626;SDS011;63132;52.268;5.192;2023-04-03T19:12:47;8.68;;;2.00;;
74626;SDS011;63132;52.268;5.192;2023-04-03T19:15:15;6.82;;;2.30;;
74626;SDS011;63132;52.268;5.192;2023-04-03T19:17:43;6.45;;;1.83;;
74626;SDS011;63132;52.268;5.192;2023-04-03T19:20:09;3.55;;;1.63;;
74626;SDS011;63132;52.268;5.192;2023-04-03T19:22:35;4.45;;;1.75;;
74626;SDS011;63132;52.268;5.192;2023-04-03T19:25:01;6.43;;;2.10;;
74626;SDS011;63132;52.268;5.192;2023-04-03T19:27:26;5.93;;;2.13;;
74626;SDS011;63132;52.268;5.192;2023-04-03T19:29:52;7.63;;;3.13;;
74626;SDS011;63132;52.268;5.192;2023-04-03T19:32:18;11.47;;;4.23;;
74626;SDS011;63132;52.268;5.192;2023-04-03T19:34:43;9.77;;;2.95;;
74626;SDS011;63132;52.268;5.192;2023-04-03T19:37:08;10.03;;;3.37;;
74626;SDS011;63132;52.268;5.192;2023-04-03T19:39:35;6.35;;;2.67;;
74626;SDS011;63132;52.268;5.192;2023-04-03T19:42:02;7.43;;;2.28;;
74626;SDS011;63132;52.268;5.192;2023-04-03T19:44:29;6.65;;;2.28;;
74626;SDS011;63132;52.268;5.192;2023-04-03T19:47:00;8.50;;;2.08;;
74626;SDS011;63132;52.268;5.192;2023-04-03T19:49:26;6.25;;;2.13;;
74626;SDS011;63132;52.268;5.192;2023-04-03T19:51:52;8.30;;;2.30;;
74626;SDS011;63132;52.268;5.192;2023-04-03T19:54:17;8.68;;;2.00;;
74626;SDS011;63132;52.268;5.192;2023-04-03T19:56:43;6.75;;;1.75;;
74626;SDS011;63132;52.268;5.192;2023-04-03T19:59:09;5.00;;;1.80;;
74626;SDS011;63132;52.268;5.192;2023-04-03T20:01:35;6.32;;;1.92;;
74626;SDS011;63132;52.268;5.192;2023-04-03T20:04:00;6.63;;;1.67;;
74626;SDS011;63132;52.268;5.192;2023-04-03T20:06:26;9.75;;;5.85;;
74626;SDS011;63132;52.268;5.192;2023-04-03T20:08:52;6.57;;;3.20;;
74626;SDS011;63132;52.268;5.192;2023-04-03T20:11:18;7.22;;;2.13;;
74626;SDS011;63132;52.268;5.192;2023-04-03T20:13:47;5.93;;;1.85;;
74626;SDS011;63132;52.268;5.192;2023-04-03T20:16:14;6.60;;;2.10;;
74626;SDS011;63132;52.268;5.192;2023-04-03T20:18:39;6.93;;;2.17;;
74626;SDS011;63132;52.268;5.192;2023-04-03T20:21:06;7.90;;;2.45;;
74626;SDS011;63132;52.268;5.192;2023-04-03T20:23:32;18.00;;;8.25;;
74626;SDS011;63132;52.268;5.192;2023-04-03T20:25:59;11.73;;;5.38;;
74626;SDS011;63132;52.268;5.192;2023-04-03T20:28:25;13.43;;;4.32;;
74626;SDS011;63132;52.268;5.192;2023-04-03T20:30:52;8.63;;;3.10;;
74626;SDS011;63132;52.268;5.192;2023-04-03T20:33:20;6.03;;;2.65;;
74626;SDS011;63132;52.268;5.192;2023-04-03T20:35:46;4.70;;;2.05;;
74626;SDS011;63132;52.268;5.192;2023-04-03T20:38:13;5.93;;;1.60;;
74626;SDS011;63132;52.268;5.192;2023-04-03T20:40:39;6.40;;;2.03;;
74626;SDS011;63132;52.268;5.192;2023-04-03T20:43:05;4.47;;;2.37;;
74626;SDS011;63132;52.268;5.192;2023-04-03T20:47:58;8.83;;;1.93;;
74626;SDS011;63132;52.268;5.192;2023-04-03T20:50:26;5.40;;;1.73;;
74626;SDS011;63132;52.268;5.192;2023-04-03T20:52:53;4.65;;;1.67;;
74626;SDS011;63132;52.268;5.192;2023-04-03T20:57:44;6.55;;;1.83;;
74626;SDS011;63132;52.268;5.192;2023-04-03T21:00:10;7.70;;;1.80;;
74626;SDS011;63132;52.268;5.192;2023-04-03T21:02:38;7.07;;;2.10;;
74626;SDS011;63132;52.268;5.192;2023-04-03T21:05:04;6.00;;;2.03;;
74626;SDS011;63132;52.268;5.192;2023-04-03T21:19:12;8.30;;;2.60;;
74626;SDS011;63132;52.268;5.192;2023-04-03T21:21:40;5.50;;;2.17;;
74626;SDS011;63132;52.268;5.192;2023-04-03T21:24:08;6.38;;;2.38;;
74626;SDS011;63132;52.268;5.192;2023-04-03T21:26:35;6.07;;;2.10;;
74626;SDS011;63132;52.268;5.192;2023-04-03T21:29:02;6.70;;;2.00;;
74626;SDS011;63132;52.268;5.192;2023-04-03T21:36:41;7.07;;;2.17;;
74626;SDS011;63132;52.268;5.192;2023-04-03T21:39:07;5.90;;;2.55;;
74626;SDS011;63132;52.268;5.192;2023-04-03T21:41:33;5.35;;;2.17;;
74626;SDS011;63132;52.268;5.192;2023-04-03T21:43:59;7.03;;;2.63;;
74626;SDS011;63132;52.268;5.192;2023-04-03T21:46:24;4.10;;;1.98;;
74626;SDS011;63132;52.268;5.192;2023-04-03T21:48:50;6.22;;;2.22;;
74626;SDS011;63132;52.268;5.192;2023-04-03T21:51:15;5.82;;;2.50;;
74626;SDS011;63132;52.268;5.192;2023-04-03T21:53:41;4.47;;;2.10;;
74626;SDS011;63132;52.268;5.192;2023-04-03T21:56:07;6.20;;;1.95;;
74626;SDS011;63132;52.268;5.192;2023-04-03T21:58:33;5.97;;;2.13;;
74626;SDS011;63132;52.268;5.192;2023-04-03T22:01:08;4.65;;;2.22;;
74626;SDS011;63132;52.268;5.192;2023-04-03T22:03:35;7.60;;;3.38;;
74626;SDS011;63132;52.268;5.192;2023-04-03T22:06:01;6.82;;;2.72;;
74626;SDS011;63132;52.268;5.192;2023-04-03T22:08:27;8.40;;;2.72;;
74626;SDS011;63132;52.268;5.192;2023-04-03T22:13:23;7.43;;;2.50;;
74626;SDS011;63132;52.268;5.192;2023-04-03T22:15:48;7.93;;;3.07;;
74626;SDS011;63132;52.268;5.192;2023-04-03T22:18:14;6.00;;;2.80;;
74626;SDS011;63132;52.268;5.192;2023-04-03T22:20:41;6.47;;;2.80;;
74626;SDS011;63132;52.268;5.192;2023-04-03T22:23:07;7.60;;;2.78;;
74626;SDS011;63132;52.268;5.192;2023-04-03T22:25:33;7.60;;;2.80;;
74626;SDS011;63132;52.268;5.192;2023-04-03T22:27:58;7.40;;;3.03;;
74626;SDS011;63132;52.268;5.192;2023-04-03T22:30:23;7.95;;;2.90;;
74626;SDS011;63132;52.268;5.192;2023-04-03T22:32:49;6.13;;;2.75;;
74626;SDS011;63132;52.268;5.192;2023-04-03T22:35:15;5.83;;;2.67;;
74626;SDS011;63132;52.268;5.192;2023-04-03T22:37:40;7.78;;;2.80;;
74626;SDS011;63132;52.268;5.192;2023-04-03T22:40:06;4.75;;;2.33;;
74626;SDS011;63132;52.268;5.192;2023-04-03T22:42:32;8.05;;;2.97;;
74626;SDS011;63132;52.268;5.192;2023-04-03T22:44:57;6.97;;;4.43;;
74626;SDS011;63132;52.268;5.192;2023-04-03T22:47:23;7.70;;;3.17;;
74626;SDS011;63132;52.268;5.192;2023-04-03T22:49:48;6.53;;;2.80;;
74626;SDS011;63132;52.268;5.192;2023-04-03T22:52:14;9.27;;;2.83;;
74626;SDS011;63132;52.268;5.192;2023-04-03T22:54:39;6.13;;;2.57;;
74626;SDS011;63132;52.268;5.192;2023-04-03T22:57:05;5.90;;;2.40;;
74626;SDS011;63132;52.268;5.192;2023-04-03T22:59:30;9.87;;;3.27;;
74626;SDS011;63132;52.268;5.192;2023-04-03T23:01:56;6.45;;;2.78;;
74626;SDS011;63132;52.268;5.192;2023-04-03T23:04:21;4.63;;;2.43;;
74626;SDS011;63132;52.268;5.192;2023-04-03T23:06:48;5.13;;;2.35;;
74626;SDS011;63132;52.268;5.192;2023-04-03T23:09:13;6.00;;;2.77;;
74626;SDS011;63132;52.268;5.192;2023-04-03T23:11:39;6.47;;;2.95;;
74626;SDS011;63132;52.268;5.192;2023-04-03T23:14:04;6.30;;;2.93;;
74626;SDS011;63132;52.268;5.192;2023-04-03T23:16:30;6.10;;;2.57;;
74626;SDS011;63132;52.268;5.192;2023-04-03T23:18:55;4.93;;;2.60;;
74626;SDS011;63132;52.268;5.192;2023-04-03T23:21:21;5.70;;;2.47;;
74626;SDS011;63132;52.268;5.192;2023-04-03T23:23:47;10.38;;;2.58;;
74626;SDS011;63132;52.268;5.192;2023-04-03T23:26:12;4.65;;;2.17;;
74626;SDS011;63132;52.268;5.192;2023-04-03T23:28:38;5.40;;;2.45;;
74626;SDS011;63132;52.268;5.192;2023-04-03T23:31:05;10.82;;;2.55;;
74626;SDS011;63132;52.268;5.192;2023-04-03T23:33:35;7.70;;;2.05;;
74626;SDS011;63132;52.268;5.192;2023-04-03T23:36:05;4.55;;;2.30;;
74626;SDS011;63132;52.268;5.192;2023-04-03T23:38:32;5.57;;;2.55;;
74626;SDS011;63132;52.268;5.192;2023-04-03T23:40:57;4.80;;;2.33;;
74626;SDS011;63132;52.268;5.192;2023-04-03T23:43:23;5.97;;;2.35;;
74626;SDS011;63132;52.268;5.192;2023-04-03T23:45:48;4.80;;;2.15;;
74626;SDS011;63132;52.268;5.192;2023-04-03T23:48:14;6.37;;;2.30;;
74626;SDS011;63132;52.268;5.192;2023-04-03T23:50:39;6.23;;;2.53;;
74626;SDS011;63132;52.268;5.192;2023-04-03T23:53:05;7.30;;;2.28;;
74626;SDS011;63132;52.268;5.192;2023-04-03T23:55:31;8.07;;;2.50;;
74626;SDS011;63132;52.268;5.192;2023-04-03T23:57:56;13.30;;;3.37;;
